Time;durP1;ratioP1;P1;durP2;ratioP2;P2;SDS_P1;SDS_P2;PMS_P1;PMS_P2;Temp;Humidity;BMP_temperature;BMP_pressure;BME280_temperature;BME280_humidity;BME280_pressure;Samples;Min_cycle;Max_cycle;Signal;HPM_P1;HPM_P2
2022/03/28 00:01:35;;;;;;;2.42;1.70;;;;;;;21.10;24.83;100157.97;5132885;28;20053;-57
2022/03/28 00:04:01;;;;;;;3.15;1.80;;;;;;;21.11;24.96;100158.78;5133004;28;20047;-58
2022/03/28 00:06:27;;;;;;;2.83;1.90;;;;;;;21.10;25.09;100151.59;5133120;28;20041;-58
2022/03/28 00:08:53;;;;;;;2.92;1.90;;;;;;;21.13;25.04;100153.66;5132987;28;20047;-58
2022/03/28 00:11:19;;;;;;;2.83;1.83;;;;;;;21.13;24.91;100148.09;5133075;28;20410;-58
2022/03/28 00:13:45;;;;;;;2.85;1.80;;;;;;;21.13;24.75;100145.31;5133349;28;20529;-61
2022/03/28 00:16:10;;;;;;;2.92;1.90;;;;;;;21.14;24.95;100150.50;5132874;28;20188;-62
2022/03/28 00:18:36;;;;;;;2.95;1.92;;;;;;;21.15;24.76;100149.38;5132917;28;20039;-61
2022/03/28 00:21:02;;;;;;;2.50;1.70;;;;;;;21.14;25.02;100141.34;5132982;28;20050;-61
2022/03/28 00:23:27;;;;;;;2.67;1.80;;;;;;;21.14;25.00;100138.56;5132924;28;20048;-61
2022/03/28 00:25:53;;;;;;;2.90;1.90;;;;;;;21.15;24.74;100140.22;5132583;28;20047;-62
2022/03/28 00:28:18;;;;;;;3.17;1.95;;;;;;;21.19;24.77;100148.63;5132523;27;20039;-61
2022/03/28 00:30:44;;;;;;;2.65;1.90;;;;;;;21.18;24.91;100142.25;5132857;28;20043;-62
2022/03/28 00:33:10;;;;;;;3.28;1.83;;;;;;;21.19;24.93;100141.09;5132666;28;20067;-61
2022/03/28 00:35:35;;;;;;;2.97;1.98;;;;;;;21.20;24.63;100137.13;5132741;28;20043;-61
2022/03/28 00:38:05;;;;;;;2.80;1.88;;;;;;;21.20;24.77;100139.91;5132695;28;20051;-62
2022/03/28 00:40:32;;;;;;;2.85;1.80;;;;;;;21.22;25.02;100137.59;5132707;28;20592;-61
2022/03/28 00:43:06;;;;;;;3.25;2.03;;;;;;;21.22;24.74;100140.41;5128407;28;20047;-61
2022/03/28 00:45:32;;;;;;;2.63;1.75;;;;;;;21.24;25.01;100129.69;5132606;28;20168;-61
2022/03/28 00:47:59;;;;;;;3.45;2.10;;;;;;;21.25;24.66;100125.75;5130763;28;20042;-61
2022/03/28 00:50:25;;;;;;;3.45;1.80;;;;;;;21.24;24.78;100129.69;5132506;28;20126;-61
2022/03/28 00:52:51;;;;;;;3.15;2.10;;;;;;;21.25;24.83;100120.19;5132485;28;20133;-62
2022/03/28 00:55:17;;;;;;;2.92;2.00;;;;;;;21.23;24.93;100122.53;5132329;28;20047;-61
2022/03/28 00:57:42;;;;;;;3.05;2.10;;;;;;;21.25;24.72;100124.94;5132314;28;20431;-61
2022/03/28 01:00:09;;;;;;;2.42;1.60;;;;;;;21.25;24.83;100116.59;5132281;28;20097;-62
2022/03/28 01:02:36;;;;;;;2.80;1.80;;;;;;;21.24;24.91;100121.34;5132355;28;20035;-61
2022/03/28 01:05:02;;;;;;;2.75;1.90;;;;;;;21.26;24.79;100116.22;5132048;28;20426;-61
2022/03/28 01:07:28;;;;;;;3.03;1.90;;;;;;;21.28;24.68;100113.09;5132173;28;20486;-61
2022/03/28 01:09:55;;;;;;;2.53;1.73;;;;;;;21.27;24.78;100117.84;5132302;28;20043;-61
2022/03/28 01:12:23;;;;;;;2.75;1.95;;;;;;;21.29;24.87;100117.50;5132266;28;20051;-61
2022/03/28 01:14:49;;;;;;;3.38;2.05;;;;;;;21.28;24.55;100113.09;5132130;28;20107;-61
2022/03/28 01:19:58;;;;;;;2.85;1.85;;;;;;;21.25;24.63;100106.28;5132158;28;20069;-58
2022/03/28 01:22:24;;;;;;;2.75;1.80;;;;;;;21.26;24.71;100113.44;5132022;28;20050;-58
2022/03/28 01:24:49;;;;;;;2.65;1.77;;;;;;;21.28;24.52;100113.09;5131826;28;20043;-58
2022/03/28 01:27:15;;;;;;;2.80;1.80;;;;;;;21.28;24.54;100113.09;5131749;28;20047;-58
2022/03/28 01:29:44;;;;;;;2.83;1.92;;;;;;;21.26;24.64;100105.09;5131636;28;20419;-58
2022/03/28 01:32:11;;;;;;;3.50;2.30;;;;;;;21.28;24.98;100113.91;5131948;28;20092;-58
2022/03/28 01:34:37;;;;;;;2.75;1.95;;;;;;;21.28;24.69;100105.56;5113214;28;20074;-61
2022/03/28 01:37:03;;;;;;;2.78;2.00;;;;;;;21.29;24.60;100109.16;5131729;28;20078;-62
2022/03/28 01:39:28;;;;;;;2.95;2.10;;;;;;;21.28;24.79;100107.53;5128552;27;20126;-61
2022/03/28 01:41:54;;;;;;;2.58;1.70;;;;;;;21.29;24.72;100103.59;5131774;28;20436;-61
2022/03/28 01:44:20;;;;;;;3.25;2.00;;;;;;;21.28;24.99;100100.00;5131396;28;20414;-61
2022/03/28 01:46:47;;;;;;;3.42;2.17;;;;;;;21.28;24.55;100099.19;5131419;28;20471;-61
2022/03/28 01:49:18;;;;;;;2.88;1.67;;;;;;;21.26;24.78;100099.53;5131535;28;20063;-61
2022/03/28 01:51:45;;;;;;;3.00;1.90;;;;;;;21.28;24.82;100101.97;5131370;28;20089;-61
2022/03/28 01:54:10;;;;;;;2.88;1.73;;;;;;;21.28;24.69;100097.22;5131473;28;20088;-61
2022/03/28 01:56:37;;;;;;;2.65;1.80;;;;;;;21.30;24.54;100099.66;5131474;28;20043;-62
2022/03/28 01:59:04;;;;;;;3.15;1.90;;;;;;;21.28;24.82;100091.66;5131393;28;20067;-62
2022/03/28 02:01:30;;;;;;;2.60;1.80;;;;;;;21.29;24.61;100095.25;5131395;28;20043;-61
2022/03/28 02:03:55;;;;;;;2.90;1.95;;;;;;;21.29;24.51;100096.06;5131432;28;20107;-58
2022/03/28 02:06:20;;;;;;;2.72;1.90;;;;;;;21.27;24.78;100086.44;5131385;28;20054;-58
2022/03/28 02:08:46;;;;;;;3.60;2.15;;;;;;;21.30;24.61;100085.75;5131261;28;20111;-58
2022/03/28 02:11:12;;;;;;;2.58;1.77;;;;;;;21.31;24.50;100090.16;5131345;28;20039;-58
2022/03/28 02:13:37;;;;;;;2.45;1.90;;;;;;;21.30;24.55;100094.09;5131251;28;20035;-57
2022/03/28 02:16:03;;;;;;;2.67;1.90;;;;;;;21.30;24.77;100096.88;5130657;28;20047;-58
2022/03/28 02:18:29;;;;;;;2.78;2.00;;;;;;;21.32;24.59;100097.31;5131035;28;20130;-58
2022/03/28 02:20:54;;;;;;;2.72;1.92;;;;;;;21.32;24.70;100078.66;5131070;28;20422;-58
2022/03/28 02:23:20;;;;;;;2.97;2.00;;;;;;;21.32;24.63;100080.63;5130910;28;20089;-58
2022/03/28 02:25:46;;;;;;;2.90;1.90;;;;;;;21.31;24.60;100079.81;5130909;28;20055;-58
2022/03/28 02:28:11;;;;;;;2.80;1.90;;;;;;;21.33;24.80;100079.44;5130983;28;20117;-58
2022/03/28 02:30:37;;;;;;;3.20;2.00;;;;;;;21.33;24.74;100080.25;5130807;28;20065;-58
2022/03/28 02:33:03;;;;;;;2.67;1.83;;;;;;;21.33;24.63;100074.69;5130886;28;20031;-58
2022/03/28 02:35:29;;;;;;;2.67;1.80;;;;;;;21.33;24.65;100079.44;5130827;28;20039;-58
2022/03/28 02:37:55;;;;;;;2.70;1.83;;;;;;;21.33;24.61;100068.31;5130788;28;20414;-58
2022/03/28 02:40:20;;;;;;;2.78;1.85;;;;;;;21.32;24.57;100084.22;5130697;28;20107;-58
2022/03/28 02:42:45;;;;;;;3.08;1.92;;;;;;;21.32;24.71;100081.44;5130874;28;20095;-58
2022/03/28 02:45:11;;;;;;;2.58;1.80;;;;;;;21.31;24.49;100079.00;5130554;28;20120;-58
2022/03/28 02:47:37;;;;;;;3.00;2.00;;;;;;;21.33;24.74;100083.03;5130572;28;20035;-58
2022/03/28 02:50:03;;;;;;;3.38;2.10;;;;;;;21.33;24.59;100076.66;5130619;27;20037;-61
2022/03/28 02:52:29;;;;;;;3.08;2.00;;;;;;;21.35;24.28;100068.75;5130499;28;20043;-61
2022/03/28 02:54:54;;;;;;;3.60;2.20;;;;;;;21.35;24.48;100075.13;5130596;28;20058;-62
2022/03/28 02:57:20;;;;;;;3.30;1.92;;;;;;;21.34;24.40;100076.31;5130553;28;20039;-62
2022/03/28 02:59:46;;;;;;;3.25;2.00;;;;;;;21.33;24.46;100079.44;5130490;28;20523;-62
2022/03/28 03:02:11;;;;;;;2.30;1.70;;;;;;;21.31;24.52;100079.81;5130327;28;20106;-62
2022/03/28 03:04:38;;;;;;;2.78;1.90;;;;;;;21.33;24.57;100088.59;5130338;28;20129;-62
2022/03/28 03:07:04;;;;;;;2.92;1.90;;;;;;;21.33;24.62;100085.00;5130448;28;20039;-61
2022/03/28 03:09:29;;;;;;;2.97;1.83;;;;;;;21.34;24.46;100078.28;5130278;28;20039;-61
2022/03/28 03:11:55;;;;;;;2.72;1.90;;;;;;;21.33;24.62;100080.25;5130158;28;20047;-62
2022/03/28 03:14:21;;;;;;;3.05;2.00;;;;;;;21.35;24.56;100075.13;5097927;28;20051;-61
2022/03/28 03:16:47;;;;;;;2.78;1.92;;;;;;;21.33;24.51;100076.66;5129101;28;20044;-62
2022/03/28 03:19:12;;;;;;;3.17;2.10;;;;;;;21.34;24.74;100079.09;5111659;28;20123;-58
2022/03/28 03:21:38;;;;;;;3.30;2.30;;;;;;;21.35;24.62;100079.88;5130357;28;20503;-58
2022/03/28 03:24:05;;;;;;;2.72;1.83;;;;;;;21.34;24.37;100065.16;5130284;28;20039;-58
2022/03/28 03:26:31;;;;;;;4.57;2.55;;;;;;;21.35;24.73;100072.34;5130082;28;20066;-58
2022/03/28 03:28:58;;;;;;;2.40;1.83;;;;;;;21.35;24.46;100077.91;5130105;28;20447;-58
2022/03/28 03:31:26;;;;;;;2.70;1.80;;;;;;;21.36;24.50;100082.34;5130276;28;20430;-58
2022/03/28 03:33:52;;;;;;;2.45;1.70;;;;;;;21.36;24.49;100084.28;5130095;28;20120;-58
2022/03/28 03:36:17;;;;;;;2.60;1.75;;;;;;;21.36;24.74;100076.75;5130134;28;20444;-58
2022/03/28 03:38:43;;;;;;;2.97;1.88;;;;;;;21.37;24.49;100072.81;5129843;28;20047;-61
2022/03/28 03:41:08;;;;;;;3.30;2.22;;;;;;;21.38;24.48;100071.63;5129976;28;20460;-62
2022/03/28 03:43:33;;;;;;;2.78;1.90;;;;;;;21.38;24.68;100062.47;5129719;28;20047;-62
2022/03/28 03:45:59;;;;;;;2.60;1.80;;;;;;;21.38;24.50;100068.84;5129814;28;20127;-61
2022/03/28 03:48:26;;;;;;;3.30;2.15;;;;;;;21.39;24.74;100073.25;5129823;28;20062;-62
2022/03/28 03:50:53;;;;;;;2.60;1.80;;;;;;;21.40;24.50;100072.06;5129986;28;20051;-61
2022/03/28 03:53:19;;;;;;;2.72;2.00;;;;;;;21.37;24.52;100066.44;5129716;28;20053;-61
2022/03/28 03:55:45;;;;;;;3.08;2.08;;;;;;;21.39;24.46;100069.66;5129759;28;20568;-61
2022/03/28 03:58:11;;;;;;;2.80;2.00;;;;;;;21.38;24.82;100071.63;5129891;28;20047;-61
2022/03/28 04:00:36;;;;;;;2.63;1.90;;;;;;;21.38;24.67;100066.06;5129928;28;20046;-61
2022/03/28 04:03:03;;;;;;;2.88;2.10;;;;;;;21.38;24.25;100066.06;5131964;27;20039;-62
2022/03/28 04:05:29;;;;;;;2.85;1.90;;;;;;;21.39;24.54;100067.69;5133153;28;20078;-61
2022/03/28 04:07:54;;;;;;;2.78;1.88;;;;;;;21.41;24.68;100073.69;5133182;28;20276;-61
2022/03/28 04:10:22;;;;;;;3.20;1.90;;;;;;;21.41;24.59;100068.13;5133200;28;20035;-61
2022/03/28 04:12:47;;;;;;;2.97;2.05;;;;;;;21.41;24.37;100075.66;5133050;28;20058;-62
2022/03/28 04:15:13;;;;;;;3.13;2.03;;;;;;;21.41;24.65;100072.88;5132935;28;20035;-61
2022/03/28 04:17:42;;;;;;;3.08;1.90;;;;;;;21.40;24.72;100072.06;5132949;28;20039;-61
2022/03/28 04:20:14;;;;;;;3.35;2.05;;;;;;;21.41;24.30;100076.47;5132968;28;20169;-61
2022/03/28 04:22:45;;;;;;;3.77;1.90;;;;;;;21.40;24.40;100074.84;5133088;28;20051;-61
2022/03/28 04:25:11;;;;;;;2.85;1.92;;;;;;;21.40;24.42;100077.63;5132881;28;20299;-61
2022/03/28 04:27:37;;;;;;;2.92;1.90;;;;;;;21.41;24.63;100082.03;5132863;28;20039;-61
2022/03/28 04:30:09;;;;;;;3.00;1.92;;;;;;;21.40;24.59;100087.97;5132929;28;20433;-61
2022/03/28 04:32:35;;;;;;;2.83;1.90;;;;;;;21.42;24.64;100082.84;5132898;28;20054;-61
2022/03/28 04:35:02;;;;;;;3.05;1.88;;;;;;;21.42;24.51;100091.19;5132792;28;20522;-61
2022/03/28 04:37:36;;;;;;;2.72;1.83;;;;;;;21.41;24.63;100084.00;5132859;28;20187;-61
2022/03/28 04:40:03;;;;;;;3.35;2.30;;;;;;;21.40;24.57;100076.84;5132843;28;20133;-61
2022/03/28 04:42:28;;;;;;;2.97;1.90;;;;;;;21.43;24.50;100079.72;5132929;28;20046;-61
2022/03/28 04:44:54;;;;;;;2.60;1.80;;;;;;;21.44;24.29;100088.88;5132414;28;20055;-61
2022/03/28 04:47:19;;;;;;;2.83;2.00;;;;;;;21.42;24.29;100093.97;5132630;28;20043;-62
2022/03/28 04:49:45;;;;;;;2.50;1.60;;;;;;;21.45;24.31;100098.03;5132523;28;20043;-62
2022/03/28 04:52:10;;;;;;;2.60;1.88;;;;;;;21.45;24.37;100101.59;5132587;28;20043;-58
2022/03/28 04:54:36;;;;;;;2.63;1.90;;;;;;;21.44;24.45;100100.00;5132446;28;20187;-58
2022/03/28 04:57:04;;;;;;;2.60;2.00;;;;;;;21.43;24.36;100104.75;5132576;28;20043;-58
2022/03/28 04:59:29;;;;;;;2.97;1.98;;;;;;;21.46;24.39;100099.63;5128112;28;20513;-58
2022/03/28 05:01:54;;;;;;;3.45;2.28;;;;;;;21.46;24.21;100097.66;5132168;28;20047;-58
2022/03/28 05:04:20;;;;;;;2.97;2.10;;;;;;;21.44;24.36;100100.00;5132061;28;20047;-58
2022/03/28 05:06:46;;;;;;;3.08;2.03;;;;;;;21.46;24.75;100105.19;5132458;28;20458;-58
2022/03/28 05:09:11;;;;;;;3.47;2.13;;;;;;;21.45;24.62;100111.94;5132348;28;20043;-58
2022/03/28 05:11:37;;;;;;;2.65;1.90;;;;;;;21.45;24.70;100109.16;5132002;28;20380;-58
2022/03/28 05:14:02;;;;;;;3.13;2.20;;;;;;;21.46;24.60;100113.53;5130804;27;20039;-58
2022/03/28 05:16:28;;;;;;;3.45;2.08;;;;;;;21.47;24.84;100106.81;5132060;28;20051;-59
2022/03/28 05:18:53;;;;;;;3.65;2.08;;;;;;;21.52;24.89;100115.69;5132116;28;20050;-58
2022/03/28 05:21:18;;;;;;;4.18;2.03;;;;;;;21.51;24.71;100111.28;5131963;28;20051;-58
2022/03/28 05:23:46;;;;;;;3.20;2.20;;;;;;;21.51;24.94;100121.63;5132099;28;20036;-58
2022/03/28 05:26:11;;;;;;;3.03;2.10;;;;;;;21.48;24.53;100108.41;5131756;28;20497;-59
2022/03/28 05:28:37;;;;;;;3.30;2.05;;;;;;;21.51;24.67;100119.66;5131855;28;20130;-58
2022/03/28 05:31:02;;;;;;;3.80;2.20;;;;;;;21.49;24.76;100116.41;5131798;28;20031;-58
2022/03/28 05:33:28;;;;;;;3.40;2.17;;;;;;;21.48;24.82;100109.22;5131807;28;20051;-58
2022/03/28 05:35:55;;;;;;;3.90;2.20;;;;;;;21.47;24.55;100106.81;5131697;28;20067;-58
2022/03/28 05:38:21;;;;;;;4.00;2.20;;;;;;;21.47;24.75;100115.16;5127886;28;20039;-59
2022/03/28 05:40:46;;;;;;;3.30;2.17;;;;;;;21.49;24.59;100118.38;5131544;28;20063;-58
2022/03/28 05:43:12;;;;;;;3.05;2.10;;;;;;;21.50;24.46;100119.97;5131602;28;20387;-58
2022/03/28 05:45:37;;;;;;;3.20;2.00;;;;;;;21.51;24.76;100118.84;5131543;28;20051;-58
2022/03/28 05:48:04;;;;;;;3.38;2.17;;;;;;;21.49;24.72;100118.38;5131303;28;20039;-58
2022/03/28 05:50:29;;;;;;;3.45;2.20;;;;;;;21.49;24.63;100124.75;5131391;28;20043;-58
2022/03/28 05:52:54;;;;;;;3.42;2.28;;;;;;;21.51;24.94;100122.44;5131525;28;20481;-59
2022/03/28 05:55:21;;;;;;;3.22;2.10;;;;;;;21.52;24.71;100123.22;5131536;28;20047;-58
2022/03/28 05:57:47;;;;;;;5.40;2.30;;;;;;;21.49;24.73;100127.53;5131494;28;20054;-58
2022/03/28 06:00:14;;;;;;;3.28;2.10;;;;;;;21.51;24.90;100124.41;5131269;28;20046;-58
2022/03/28 06:02:41;;;;;;;3.42;2.22;;;;;;;21.52;25.03;100129.59;5131463;28;20043;-58
2022/03/28 06:05:07;;;;;;;3.78;2.40;;;;;;;21.53;24.88;100119.28;5131514;28;20047;-59
2022/03/28 06:07:32;;;;;;;5.18;2.17;;;;;;;21.53;25.06;100119.28;5131380;28;20054;-58
2022/03/28 06:09:58;;;;;;;3.17;1.92;;;;;;;21.52;25.28;100118.47;5131373;28;20039;-58
2022/03/28 06:12:24;;;;;;;3.25;2.25;;;;;;;21.52;25.00;100109.31;5130893;28;20050;-58
2022/03/28 06:14:49;;;;;;;3.00;2.03;;;;;;;21.51;24.93;100111.28;5131177;28;20390;-58
2022/03/28 06:17:22;;;;;;;3.13;2.00;;;;;;;21.52;25.22;100112.91;5131149;28;20039;-58
2022/03/28 06:19:48;;;;;;;3.42;2.30;;;;;;;21.52;25.39;100107.34;5128751;28;20054;-59
2022/03/28 06:22:14;;;;;;;3.15;2.00;;;;;;;21.52;25.26;100114.88;5130886;28;20406;-58
2022/03/28 06:24:39;;;;;;;3.35;2.00;;;;;;;21.54;25.43;100115.31;5130710;27;20054;-58
2022/03/28 06:27:04;;;;;;;3.30;2.28;;;;;;;21.53;25.24;100114.50;5131017;28;20032;-58
2022/03/28 06:29:30;;;;;;;3.50;2.30;;;;;;;21.53;25.42;100120.09;5130833;28;20035;-58
2022/03/28 06:31:55;;;;;;;2.60;2.00;;;;;;;21.55;25.47;100128.06;5130790;28;20035;-58
2022/03/28 06:34:21;;;;;;;2.67;1.95;;;;;;;21.55;25.35;100130.84;5130809;28;20051;-58
2022/03/28 06:36:47;;;;;;;3.60;2.33;;;;;;;21.57;25.52;100125.72;5130789;28;20131;-58
2022/03/28 06:39:13;;;;;;;3.05;2.03;;;;;;;21.56;25.30;100133.25;5097006;28;20176;-59
2022/03/28 06:41:39;;;;;;;3.20;2.22;;;;;;;21.57;25.66;100131.28;5130075;28;20047;-58
2022/03/28 06:44:07;;;;;;;3.25;2.30;;;;;;;21.58;25.57;100136.50;5129081;28;20042;-59
2022/03/28 06:46:33;;;;;;;3.13;2.13;;;;;;;21.60;25.36;100133.34;5130152;28;20075;-59
2022/03/28 06:48:58;;;;;;;2.60;1.90;;;;;;;21.63;25.59;100129.84;5123920;28;20074;-58
2022/03/28 06:51:24;;;;;;;3.28;2.38;;;;;;;21.63;25.97;100122.28;5129887;28;20043;-59
2022/03/28 06:53:50;;;;;;;2.95;1.98;;;;;;;21.63;25.77;100124.28;5130151;28;20642;-59
2022/03/28 06:56:16;;;;;;;3.72;2.10;;;;;;;21.62;25.97;100114.31;5128997;28;20043;-59
2022/03/28 06:58:42;;;;;;;3.63;2.47;;;;;;;21.66;25.78;100118.00;5119988;28;20047;-59
2022/03/28 07:01:09;;;;;;;3.63;2.20;;;;;;;21.64;25.94;100109.19;5117567;28;20430;-59
2022/03/28 07:03:34;;;;;;;4.90;2.40;;;;;;;21.66;25.88;100115.22;5116489;28;20044;-59
2022/03/28 07:06:01;;;;;;;3.90;2.50;;;;;;;21.64;25.94;100111.97;5112638;28;20058;-59
2022/03/28 07:08:26;;;;;;;8.75;2.33;;;;;;;21.67;25.82;100105.69;5083057;28;20043;-59
2022/03/28 07:10:52;;;;;;;3.72;2.58;;;;;;;21.67;25.99;100105.69;5128276;28;20039;-60
2022/03/28 07:13:18;;;;;;;3.63;2.35;;;;;;;21.68;25.88;100110.88;5127449;28;20088;-58
2022/03/28 07:15:43;;;;;;;3.55;2.72;;;;;;;21.70;25.83;100102.16;5119642;28;20039;-58
2022/03/28 07:18:09;;;;;;;3.63;2.40;;;;;;;21.71;25.77;100103.75;5129682;28;20051;-59
2022/03/28 07:20:36;;;;;;;2.97;2.25;;;;;;;21.73;26.32;100106.22;5129594;28;20810;-58
2022/03/28 07:23:03;;;;;;;2.80;2.00;;;;;;;21.76;26.37;100099.91;5127010;28;20039;-58
2022/03/28 07:25:29;;;;;;;3.88;2.28;;;;;;;21.76;26.41;100092.34;5126173;28;20578;-59
2022/03/28 07:27:56;;;;;;;3.88;2.72;;;;;;;21.75;25.97;100099.09;5118368;28;20066;-58
2022/03/28 07:30:23;;;;;;;5.65;2.38;;;;;;;21.74;26.31;100103.06;5128338;28;20427;-58
2022/03/28 07:32:51;;;;;;;4.18;2.70;;;;;;;21.74;26.04;100093.91;5128441;28;20039;-58
2022/03/28 07:35:17;;;;;;;3.38;2.30;;;;;;;21.71;26.22;100093.44;5123670;28;20495;-58
2022/03/28 07:37:43;;;;;;;3.55;2.42;;;;;;;21.70;26.30;100096.59;5123642;27;20093;-58
2022/03/28 07:40:10;;;;;;;3.20;2.20;;;;;;;21.69;26.10;100089.41;5126527;28;20043;-58
2022/03/28 07:42:38;;;;;;;4.22;2.80;;;;;;;21.71;26.16;100098.19;5127364;28;20035;-58
2022/03/28 07:45:05;;;;;;;3.50;2.40;;;;;;;21.68;26.58;100099.75;5129696;28;20051;-58
2022/03/28 07:47:31;;;;;;;4.47;2.47;;;;;;;21.68;26.62;100099.75;5128885;28;20074;-58
2022/03/28 07:49:58;;;;;;;4.72;2.50;;;;;;;21.69;26.57;100100.53;5132397;28;20406;-58
2022/03/28 07:52:24;;;;;;;3.35;2.33;;;;;;;21.69;26.81;100090.22;5132601;28;20067;-58
2022/03/28 07:54:51;;;;;;;3.22;2.25;;;;;;;21.70;26.37;100091.81;5112174;28;20043;-58
2022/03/28 07:57:20;;;;;;;3.13;2.15;;;;;;;21.69;26.48;100086.63;5123156;28;20050;-58
2022/03/28 07:59:47;;;;;;;2.90;2.17;;;;;;;21.68;26.12;100079.44;5126778;27;20031;-59
2022/03/28 08:02:14;;;;;;;5.22;2.33;;;;;;;21.68;25.99;100080.25;5128586;28;20047;-59
2022/03/28 08:04:39;;;;;;;4.80;2.60;;;;;;;21.66;26.03;100084.59;5131727;28;20544;-58
2022/03/28 08:07:08;;;;;;;4.10;2.63;;;;;;;21.64;26.39;100075.75;5130887;28;20043;-58
2022/03/28 08:09:37;;;;;;;3.80;2.55;;;;;;;21.63;26.33;100069.41;5115037;28;20099;-59
2022/03/28 08:12:03;;;;;;;4.85;2.60;;;;;;;21.61;26.34;100066.19;5126077;28;20081;-59
2022/03/28 08:14:29;;;;;;;3.40;2.53;;;;;;;21.60;26.09;100067.34;5124697;28;20035;-59
2022/03/28 08:16:55;;;;;;;3.60;2.60;;;;;;;21.59;26.23;100057.41;5131267;28;20092;-59
2022/03/28 08:19:21;;;;;;;3.72;2.40;;;;;;;21.59;26.43;100059.38;5132100;28;20518;-59
2022/03/28 08:21:46;;;;;;;3.33;2.20;;;;;;;21.59;26.17;100051.81;5131610;28;20043;-58
2022/03/28 08:24:12;;;;;;;3.40;2.33;;;;;;;21.58;26.15;100050.22;5096962;28;20040;-59
2022/03/28 08:26:37;;;;;;;3.70;2.35;;;;;;;21.59;26.29;100042.66;5130133;28;20534;-58
2022/03/28 08:29:04;;;;;;;3.15;2.25;;;;;;;21.57;26.43;100045.00;5129333;28;20047;-58
2022/03/28 08:31:30;;;;;;;3.25;2.42;;;;;;;21.54;26.30;100043.75;5124627;28;20043;-59
2022/03/28 08:33:55;;;;;;;3.53;2.47;;;;;;;21.54;26.29;100043.75;5116516;28;20042;-58
2022/03/28 08:36:21;;;;;;;6.32;4.57;;;;;;;21.54;26.13;100034.59;5118328;28;20115;-59
2022/03/28 08:38:47;;;;;;;5.30;3.90;;;;;;;21.55;26.04;100039.78;5105219;28;20056;-58
2022/03/28 08:41:14;;;;;;;4.45;3.35;;;;;;;21.53;26.07;100033.00;5109529;28;20038;-59
2022/03/28 08:43:40;;;;;;;6.00;3.38;;;;;;;21.52;26.37;100039.72;5108635;28;20115;-59
2022/03/28 08:46:08;;;;;;;5.00;3.38;;;;;;;21.49;26.28;100035.69;5108604;28;20112;-59
2022/03/28 08:48:38;;;;;;;4.93;3.33;;;;;;;21.47;26.51;100032.47;5109980;28;20122;-59
2022/03/28 08:51:03;;;;;;;4.43;3.08;;;;;;;21.47;26.25;100034.44;5109135;28;20043;-59
2022/03/28 08:53:29;;;;;;;6.25;3.05;;;;;;;21.46;26.47;100033.63;5111363;28;20039;-58
2022/03/28 08:55:54;;;;;;;4.32;3.08;;;;;;;21.45;26.00;100026.47;5108019;28;20126;-58
2022/03/28 08:58:20;;;;;;;3.80;2.67;;;;;;;21.45;26.35;100031.22;5107437;28;20051;-58
2022/03/28 09:00:45;;;;;;;4.85;3.00;;;;;;;21.45;26.15;100023.69;5110353;28;20039;-59
2022/03/28 09:03:11;;;;;;;4.55;2.83;;;;;;;21.43;26.16;100012.91;5111396;28;20055;-58
2022/03/28 09:05:38;;;;;;;4.78;3.30;;;;;;;21.43;26.25;100020.44;5105562;28;20047;-58
2022/03/28 09:08:06;;;;;;;3.85;2.67;;;;;;;21.42;26.25;100018.81;5105428;28;20039;-57
2022/03/28 09:10:33;;;;;;;4.20;2.92;;;;;;;21.42;25.93;100014.06;5104422;28;20220;-58
2022/03/28 09:13:05;;;;;;;4.35;2.88;;;;;;;21.42;26.09;100021.59;5108033;28;20044;-58
2022/03/28 09:15:55;;;;;;;5.85;2.88;;;;;;;21.42;25.90;100014.06;5103531;28;20051;-58
2022/03/28 09:18:27;;;;;;;3.65;2.60;;;;;;;21.41;25.89;100008.88;5109831;28;20591;-58
2022/03/28 09:20:53;;;;;;;3.95;2.83;;;;;;;21.40;25.89;99999.72;5105969;28;20051;-59
2022/03/28 09:23:33;;;;;;;3.53;2.70;;;;;;;21.41;25.92;99998.53;5109270;28;20101;-59
2022/03/28 09:26:05;;;;;;;4.68;2.90;;;;;;;21.39;26.07;99991.75;5106405;28;20044;-58
2022/03/28 09:28:37;;;;;;;3.92;2.60;;;;;;;21.39;25.92;99986.97;5106217;28;20406;-58
2022/03/28 09:31:19;;;;;;;3.85;2.58;;;;;;;21.37;26.11;99989.31;5103710;28;20499;-58
2022/03/28 09:33:51;;;;;;;3.40;2.35;;;;;;;21.39;25.69;99988.94;5107826;28;20090;-59
2022/03/28 09:36:16;;;;;;;4.10;2.83;;;;;;;21.40;26.03;99987.78;5104477;28;20052;-58
2022/03/28 09:38:55;;;;;;;4.18;2.80;;;;;;;21.49;25.54;99991.16;5099622;27;20287;-59
2022/03/28 09:41:23;;;;;;;3.38;2.40;;;;;;;21.52;25.45;99984.88;5107170;28;20051;-59
2022/03/28 09:43:53;;;;;;;3.45;2.42;;;;;;;21.56;25.33;99979.34;5106388;28;20056;-59
2022/03/28 09:46:26;;;;;;;3.33;2.35;;;;;;;21.57;25.49;99972.63;5105597;28;20079;-60
2022/03/28 09:48:51;;;;;;;;;;;;;;;21.62;25.32;99961.19;5105216;28;20445;-58
2022/03/28 09:51:18;;;;;;;3.53;2.40;;;;;;;21.57;25.62;99953.13;5106134;28;19969;-62
2022/03/28 09:53:47;;;;;;;3.60;2.33;;;;;;;21.58;25.44;99954.75;5104204;28;20047;-60
2022/03/28 09:56:13;;;;;;;3.22;2.40;;;;;;;21.58;25.58;99955.56;5104160;28;20043;-62
2022/03/28 09:59:03;;;;;;;5.72;2.58;;;;;;;21.61;25.66;99948.44;5106613;28;20414;-63
2022/03/28 10:01:32;;;;;;;6.82;2.60;;;;;;;21.65;25.55;99938.22;5100195;28;20043;-61
2022/03/28 10:04:01;;;;;;;3.10;2.30;;;;;;;21.67;25.30;99924.72;5105431;28;20456;-63
2022/03/28 10:06:28;;;;;;;3.15;2.15;;;;;;;21.64;25.49;99922.66;5103666;28;20515;-62
2022/03/28 10:08:53;;;;;;;5.75;2.42;;;;;;;21.64;25.48;99915.09;5103730;28;20158;-62
2022/03/28 10:11:19;;;;;;;3.45;2.40;;;;;;;21.68;25.30;99915.97;5107147;28;20769;-63
2022/03/28 10:13:45;;;;;;;3.42;2.55;;;;;;;21.68;25.08;99910.41;5106381;28;20047;-63
2022/03/28 10:16:11;;;;;;;5.75;2.58;;;;;;;21.67;25.12;99908.81;5098811;28;20096;-62
2022/03/28 10:18:40;;;;;;;3.70;2.50;;;;;;;21.64;25.16;99901.19;5104718;28;20474;-62
2022/03/28 10:21:21;;;;;;;5.20;2.60;;;;;;;21.66;24.83;99896.06;5106473;28;20050;-61
2022/03/28 10:24:05;;;;;;;3.15;2.33;;;;;;;21.69;25.05;99891.72;5106966;28;20179;-62
2022/03/28 10:26:40;;;;;;;4.22;2.78;;;;;;;21.71;24.96;99892.16;5095343;28;20035;-62
2022/03/28 10:29:17;;;;;;;3.67;2.42;;;;;;;21.69;24.76;99886.16;5093082;28;20450;-64
2022/03/28 10:32:02;;;;;;;3.72;2.50;;;;;;;21.72;25.08;99888.22;5124094;28;20044;-63
2022/03/28 10:34:46;;;;;;;4.38;2.92;;;;;;;21.71;24.64;99881.81;5123636;27;20058;-63
2022/03/28 10:37:36;;;;;;;3.88;2.58;;;;;;;21.69;24.63;99866.69;5126771;28;20151;-64
2022/03/28 10:40:22;;;;;;;4.00;2.60;;;;;;;21.70;24.73;99857.94;5126309;28;20080;-63
2022/03/28 10:43:09;;;;;;;5.75;2.67;;;;;;;21.71;24.71;99853.97;5127317;28;20043;-64
2022/03/28 10:45:49;;;;;;;3.78;2.30;;;;;;;21.71;24.58;99844.81;5127877;28;20043;-64
2022/03/28 10:48:16;;;;;;;3.92;2.50;;;;;;;21.74;24.55;99838.53;5125234;28;20100;-62
2022/03/28 10:50:51;;;;;;;3.80;2.60;;;;;;;21.72;24.46;99838.13;5126806;28;20039;-63
2022/03/28 10:53:29;;;;;;;4.40;2.67;;;;;;;21.76;24.77;99832.59;5127542;28;20065;-64
2022/03/28 10:56:05;;;;;;;3.90;2.75;;;;;;;21.75;24.53;99819.84;5125436;28;20042;-64
2022/03/28 10:58:52;;;;;;;3.60;2.50;;;;;;;21.79;24.46;99827.09;5124715;27;20031;-63
2022/03/28 11:01:19;;;;;;;4.80;2.80;;;;;;;21.80;24.55;99814.78;5130354;28;20080;-63
2022/03/28 11:03:55;;;;;;;4.90;2.70;;;;;;;21.77;24.18;99807.16;5130004;28;20395;-63
2022/03/28 11:06:44;;;;;;;4.30;2.88;;;;;;;21.79;24.32;99804.81;5123389;28;20051;-63
2022/03/28 11:09:09;;;;;;;4.25;2.50;;;;;;;21.83;24.21;99804.88;5124739;28;20050;-63
2022/03/28 11:11:35;;;;;;;3.28;2.30;;;;;;;21.83;24.04;99786.19;5129011;27;20039;-62
2022/03/28 11:14:09;;;;;;;3.70;2.35;;;;;;;21.82;23.91;99784.56;5132444;28;20047;-63
2022/03/28 11:16:44;;;;;;;6.50;2.30;;;;;;;21.82;24.08;99781.00;5132023;28;20111;-63
2022/03/28 11:19:27;;;;;;;3.35;2.55;;;;;;;21.84;23.80;99778.63;5132392;28;20066;-62
2022/03/28 11:22:04;;;;;;;3.45;2.42;;;;;;;21.84;23.87;99768.28;5130049;28;20486;-63
2022/03/28 11:24:56;;;;;;;4.10;2.35;;;;;;;21.86;23.48;99759.56;5132703;28;20051;-63
2022/03/28 11:27:24;;;;;;;3.80;2.65;;;;;;;21.88;23.45;99760.00;5132903;28;20094;-64
2022/03/28 11:29:58;;;;;;;3.97;2.40;;;;;;;21.89;23.47;99754.06;5132919;28;20466;-61
2022/03/28 11:32:28;;;;;;;4.00;2.67;;;;;;;21.87;23.22;99742.50;5131143;28;20043;-61